Time;durP1;ratioP1;P1;durP2;ratioP2;P2;SDS_P1;SDS_P2;PMS_P1;PMS_P2;Temp;Humidity;BMP_temperature;BMP_pressure;BME280_temperature;BME280_humidity;BME280_pressure;Samples;Min_cycle;Max_cycle;Signal;HPM_P1;HPM_P2
2021/06/24 00:02:14;;;;;;;32.03;28.70;;;13.00;99.90;;;;;;5122682;28;20492;-71
2021/06/24 00:04:41;;;;;;;33.80;30.50;;;12.90;99.90;;;;;;5117714;28;20546;-70
2021/06/24 00:07:08;;;;;;;33.63;30.60;;;12.90;99.90;;;;;;5117644;28;20453;-70
2021/06/24 00:09:36;;;;;;;32.00;29.10;;;12.90;99.90;;;;;;5119787;28;20474;-69
2021/06/24 00:12:04;;;;;;;31.87;28.93;;;12.90;99.90;;;;;;5112235;28;20456;-70
2021/06/24 00:14:31;;;;;;;33.20;29.83;;;12.90;99.90;;;;;;5117022;28;20955;-70
2021/06/24 00:16:58;;;;;;;32.33;29.33;;;12.80;99.90;;;;;;5124162;28;20509;-70
2021/06/24 00:19:25;;;;;;;38.13;31.00;;;12.80;99.90;;;;;;5118838;28;20464;-70
2021/06/24 00:21:52;;;;;;;35.03;31.53;;;12.90;99.90;;;;;;5116960;28;20483;-73
2021/06/24 00:24:19;;;;;;;33.50;30.00;;;12.90;99.90;;;;;;5119014;28;20456;-72
2021/06/24 00:26:48;;;;;;;32.73;29.63;;;12.90;99.90;;;;;;5117992;28;20820;-69
2021/06/24 00:29:15;;;;;;;32.70;29.70;;;12.90;99.90;;;;;;5122555;27;20456;-70
2021/06/24 00:31:42;;;;;;;34.13;30.50;;;13.10;99.90;;;;;;5116987;27;20463;-69
2021/06/24 00:34:09;;;;;;;40.23;29.80;;;13.20;99.90;;;;;;5125345;27;20839;-71
2021/06/24 00:36:36;;;;;;;34.40;31.20;;;13.30;99.90;;;;;;5120560;27;20581;-70
2021/06/24 00:39:03;;;;;;;35.13;31.43;;;13.30;99.90;;;;;;5118847;27;20478;-70
2021/06/24 00:41:31;;;;;;;33.70;30.37;;;13.40;99.90;;;;;;5121829;27;20495;-70
2021/06/24 00:43:59;;;;;;;32.10;29.17;;;13.40;99.90;;;;;;5121521;27;20834;-73
2021/06/24 00:46:27;;;;;;;33.20;30.13;;;13.50;99.90;;;;;;5122044;27;20464;-72
2021/06/24 00:48:58;;;;;;;32.10;29.00;;;13.50;99.90;;;;;;5118025;27;20461;-73
2021/06/24 00:51:25;;;;;;;32.77;29.73;;;13.60;99.90;;;;;;5121102;27;20880;-70
2021/06/24 00:53:52;;;;;;;33.83;30.60;;;13.60;99.90;;;;;;5119390;27;20456;-70
2021/06/24 00:56:27;;;;;;;33.50;30.60;;;13.70;99.90;;;;;;5122918;27;20453;-71
2021/06/24 00:58:54;;;;;;;33.07;30.03;;;13.80;99.90;;;;;;5118367;27;20654;-71
2021/06/24 01:01:22;;;;;;;33.40;30.10;;;13.80;99.90;;;;;;5124914;27;20830;-71
2021/06/24 01:03:49;;;;;;;32.23;29.33;;;13.90;99.90;;;;;;5115951;27;20484;-71
2021/06/24 01:06:16;;;;;;;33.40;30.60;;;13.90;99.90;;;;;;5121630;27;20499;-70
2021/06/24 01:08:44;;;;;;;32.97;29.50;;;13.90;99.90;;;;;;5119301;27;20462;-70
2021/06/24 01:11:11;;;;;;;34.43;30.77;;;14.00;99.90;;;;;;5120592;27;20477;-72
2021/06/24 01:13:38;;;;;;;33.83;30.33;;;14.00;99.90;;;;;;5120159;27;20459;-69
2021/06/24 01:16:06;;;;;;;32.53;28.67;;;14.00;99.90;;;;;;5123242;27;20457;-71
2021/06/24 01:18:34;;;;;;;33.10;30.23;;;14.00;99.90;;;;;;5119058;27;20581;-71
2021/06/24 01:21:03;;;;;;;34.23;30.90;;;14.00;99.90;;;;;;5115021;27;20491;-73
2021/06/24 01:23:31;;;;;;;33.40;30.30;;;14.10;99.90;;;;;;5120275;27;20483;-69
2021/06/24 01:25:59;;;;;;;31.53;28.60;;;14.10;99.90;;;;;;5121608;27;20464;-72
2021/06/24 01:28:26;;;;;;;29.53;27.03;;;14.10;99.90;;;;;;5122703;27;20456;-71
2021/06/24 01:30:53;;;;;;;33.20;30.17;;;14.10;99.90;;;;;;5123584;27;20816;-70
2021/06/24 01:33:20;;;;;;;33.20;30.20;;;14.10;99.90;;;;;;5118807;27;20460;-70
2021/06/24 01:35:47;;;;;;;31.57;28.50;;;14.10;99.90;;;;;;5117009;27;20874;-70
2021/06/24 01:38:14;;;;;;;30.03;27.27;;;14.20;99.90;;;;;;5116490;27;20538;-72
2021/06/24 01:40:41;;;;;;;30.93;28.30;;;14.20;99.90;;;;;;5118048;27;20463;-70
2021/06/24 01:43:09;;;;;;;32.70;27.53;;;14.20;99.90;;;;;;5121300;27;20476;-70
2021/06/24 01:45:45;;;;;;;29.80;27.40;;;14.20;99.90;;;;;;5121007;27;20482;-73
2021/06/24 01:48:12;;;;;;;30.43;27.63;;;14.30;99.90;;;;;;5123709;27;20468;-72
2021/06/24 01:50:39;;;;;;;32.07;29.33;;;14.20;99.90;;;;;;5115053;27;20460;-71
2021/06/24 01:53:06;;;;;;;30.87;28.07;;;14.20;99.90;;;;;;5119632;27;20460;-73
2021/06/24 01:55:34;;;;;;;31.67;28.70;;;14.30;99.90;;;;;;5120901;27;21065;-70
2021/06/24 01:58:01;;;;;;;32.03;28.73;;;14.30;99.90;;;;;;5124242;27;20541;-70
2021/06/24 02:00:30;;;;;;;29.93;26.83;;;14.30;99.90;;;;;;5119310;27;20487;-70
2021/06/24 02:02:57;;;;;;;30.10;27.30;;;14.40;99.90;;;;;;5117373;27;20558;-70
2021/06/24 02:05:24;;;;;;;28.23;26.03;;;14.30;99.90;;;;;;5119264;27;20456;-72
2021/06/24 02:07:51;;;;;;;29.97;27.53;;;14.20;99.90;;;;;;5115689;27;20463;-70
2021/06/24 02:10:18;;;;;;;30.70;27.63;;;14.30;99.90;;;;;;5119655;27;20465;-70
2021/06/24 02:12:45;;;;;;;31.43;28.13;;;14.20;99.90;;;;;;5124783;27;20466;-70
2021/06/24 02:15:14;;;;;;;30.07;27.33;;;14.20;99.90;;;;;;5120761;27;20482;-70
2021/06/24 02:17:43;;;;;;;29.77;27.10;;;14.10;99.90;;;;;;5116636;27;20456;-70
2021/06/24 02:20:12;;;;;;;29.37;26.80;;;14.10;99.90;;;;;;5122193;27;20480;-72
2021/06/24 02:22:39;;;;;;;31.27;28.10;;;14.00;99.90;;;;;;5119771;27;20549;-72
2021/06/24 02:25:08;;;;;;;30.70;27.63;;;14.00;99.90;;;;;;5116166;27;20701;-70
2021/06/24 02:27:36;;;;;;;31.13;27.90;;;13.90;99.90;;;;;;5120758;27;20946;-70
2021/06/24 02:30:04;;;;;;;31.13;28.10;;;13.90;99.90;;;;;;5118881;27;20506;-69
2021/06/24 02:32:30;;;;;;;31.53;28.60;;;13.90;99.90;;;;;;5120368;27;20536;-72
2021/06/24 02:34:59;;;;;;;31.37;28.43;;;13.80;99.90;;;;;;5120010;27;20556;-70
2021/06/24 02:37:26;;;;;;;31.87;29.07;;;13.80;99.90;;;;;;5124351;27;20460;-73
2021/06/24 02:39:53;;;;;;;30.23;27.33;;;13.80;99.90;;;;;;5112937;27;20457;-70
2021/06/24 02:42:20;;;;;;;31.90;28.90;;;13.80;99.90;;;;;;5112449;27;20552;-70
2021/06/24 02:44:47;;;;;;;32.07;28.77;;;13.80;99.90;;;;;;5116646;27;20499;-70
2021/06/24 02:47:14;;;;;;;37.90;29.03;;;13.80;99.90;;;;;;5119922;27;20472;-73
2021/06/24 02:49:41;;;;;;;32.27;29.20;;;13.70;99.90;;;;;;5122407;27;20460;-71
2021/06/24 02:52:10;;;;;;;35.83;28.87;;;13.60;99.90;;;;;;5122249;27;20452;-69
2021/06/24 02:54:36;;;;;;;30.27;27.67;;;13.60;99.90;;;;;;5117125;27;20510;-70
2021/06/24 02:57:04;;;;;;;30.60;27.67;;;13.60;99.90;;;;;;5118312;27;20550;-70
2021/06/24 02:59:31;;;;;;;31.60;28.43;;;13.60;99.90;;;;;;5121805;27;21245;-70
2021/06/24 03:01:58;;;;;;;31.73;28.50;;;13.60;99.90;;;;;;5115540;27;20482;-70
2021/06/24 03:04:25;;;;;;;30.80;27.80;;;13.60;99.90;;;;;;5122679;27;20886;-70
2021/06/24 03:06:53;;;;;;;30.93;27.90;;;13.50;99.90;;;;;;5119871;27;20462;-71
2021/06/24 03:09:22;;;;;;;31.67;28.17;;;13.50;99.90;;;;;;5114446;27;20457;-70
2021/06/24 03:11:49;;;;;;;32.27;29.07;;;13.50;99.90;;;;;;5116860;27;20548;-70
2021/06/24 03:14:16;;;;;;;32.40;28.10;;;13.40;99.90;;;;;;5110957;28;20474;-72
2021/06/24 03:16:44;;;;;;;34.13;26.97;;;13.40;99.90;;;;;;5124098;28;20456;-70
2021/06/24 03:19:11;;;;;;;33.30;29.17;;;13.40;99.90;;;;;;5118258;28;20464;-70
2021/06/24 03:21:39;;;;;;;31.47;28.40;;;13.40;99.90;;;;;;5118489;28;20479;-72
2021/06/24 03:24:08;;;;;;;32.37;29.33;;;13.40;99.90;;;;;;5116299;28;20479;-70
2021/06/24 03:26:36;;;;;;;30.03;27.20;;;13.40;99.90;;;;;;5123863;28;20830;-70
2021/06/24 03:29:05;;;;;;;34.53;29.20;;;13.40;99.90;;;;;;5118355;28;20539;-70
2021/06/24 03:31:32;;;;;;;28.27;25.73;;;13.50;99.90;;;;;;5116931;28;20472;-70
2021/06/24 03:33:59;;;;;;;32.17;28.80;;;13.60;99.90;;;;;;5120884;28;20460;-70
2021/06/24 03:36:26;;;;;;;31.93;28.73;;;13.60;99.90;;;;;;5114706;28;20457;-72
2021/06/24 03:38:53;;;;;;;30.47;27.37;;;13.70;99.90;;;;;;5129530;27;20460;-73
2021/06/24 03:41:24;;;;;;;43.10;28.27;;;13.70;99.90;;;;;;5123552;28;20543;-70
2021/06/24 03:43:54;;;;;;;29.77;26.70;;;13.80;99.90;;;;;;5117699;28;20857;-70
2021/06/24 03:46:21;;;;;;;31.00;27.30;;;13.80;99.90;;;;;;5116502;28;20459;-70
2021/06/24 03:48:48;;;;;;;33.77;27.30;;;13.90;99.90;;;;;;5120646;28;20492;-71
2021/06/24 03:51:16;;;;;;;31.53;28.37;;;13.90;99.90;;;;;;5121794;28;20460;-71
2021/06/24 03:53:43;;;;;;;31.47;27.90;;;13.90;99.90;;;;;;5115217;28;20467;-71
2021/06/24 03:56:10;;;;;;;31.63;28.00;;;13.90;99.90;;;;;;5117746;28;20486;-70
2021/06/24 03:58:38;;;;;;;32.57;28.77;;;14.00;99.90;;;;;;5116792;28;20467;-71
2021/06/24 04:01:06;;;;;;;33.43;27.67;;;14.10;99.90;;;;;;5114113;27;21026;-70
2021/06/24 04:03:33;;;;;;;30.00;26.83;;;14.20;99.90;;;;;;5115290;27;20485;-70
2021/06/24 04:06:00;;;;;;;29.57;26.63;;;14.10;99.90;;;;;;5113442;27;20885;-71
2021/06/24 04:08:27;;;;;;;41.40;28.47;;;14.10;99.90;;;;;;5118350;27;20991;-70
2021/06/24 04:10:54;;;;;;;31.20;28.00;;;14.20;99.90;;;;;;5122542;27;21043;-71
2021/06/24 04:13:22;;;;;;;34.70;29.17;;;14.20;99.90;;;;;;5120191;27;20456;-70
2021/06/24 04:15:49;;;;;;;31.30;28.00;;;14.30;99.90;;;;;;5112782;27;20461;-70
2021/06/24 04:18:17;;;;;;;30.33;27.37;;;14.40;99.90;;;;;;5121296;27;20470;-70
2021/06/24 04:20:44;;;;;;;29.67;26.93;;;14.50;99.90;;;;;;5116708;27;20483;-71
2021/06/24 04:23:11;;;;;;;34.33;27.07;;;14.50;99.90;;;;;;5123716;27;20552;-69
2021/06/24 04:25:38;;;;;;;29.93;27.10;;;14.60;99.90;;;;;;5120256;27;20456;-69
2021/06/24 04:28:06;;;;;;;30.20;27.40;;;14.70;99.90;;;;;;5119469;27;20456;-70
2021/06/24 04:30:33;;;;;;;29.93;26.73;;;14.70;99.90;;;;;;5122753;27;20458;-71
2021/06/24 04:33:00;;;;;;;30.43;27.23;;;14.80;99.90;;;;;;5125724;27;20461;-71
2021/06/24 04:35:29;;;;;;;29.90;26.80;;;14.80;99.90;;;;;;5116971;27;20487;-72
2021/06/24 04:37:56;;;;;;;34.23;27.87;;;14.90;99.90;;;;;;5124780;27;20464;-70
2021/06/24 04:40:23;;;;;;;31.10;28.13;;;14.90;99.90;;;;;;5121248;27;20456;-70
2021/06/24 04:42:50;;;;;;;28.60;26.00;;;15.00;99.90;;;;;;5120073;27;20463;-71
2021/06/24 04:45:17;;;;;;;32.90;26.53;;;15.10;99.90;;;;;;5119248;27;20488;-73
2021/06/24 04:47:44;;;;;;;29.80;26.90;;;15.10;99.90;;;;;;5123341;27;20464;-71
2021/06/24 04:50:13;;;;;;;29.07;26.37;;;15.10;99.90;;;;;;5122899;27;20964;-72
2021/06/24 04:52:41;;;;;;;29.63;26.53;;;15.20;99.90;;;;;;5120204;27;20464;-71
2021/06/24 04:55:09;;;;;;;29.03;26.27;;;15.30;99.90;;;;;;5117967;27;20491;-71
2021/06/24 04:57:36;;;;;;;28.60;26.00;;;15.30;99.90;;;;;;5119085;27;20460;-71
2021/06/24 05:00:05;;;;;;;28.60;25.80;;;15.30;99.90;;;;;;5117627;27;20591;-70
2021/06/24 05:02:31;;;;;;;29.40;26.80;;;15.50;99.90;;;;;;5115954;27;21050;-73
2021/06/24 05:04:58;;;;;;;28.80;25.50;;;15.60;99.90;;;;;;5126747;27;20487;-70
2021/06/24 05:07:26;;;;;;;29.20;26.17;;;15.40;99.90;;;;;;5122490;27;20452;-71
2021/06/24 05:09:55;;;;;;;28.53;25.50;;;15.40;99.90;;;;;;5120368;27;20552;-73
2021/06/24 05:12:22;;;;;;;30.10;24.10;;;15.50;99.90;;;;;;5120507;27;20467;-71
2021/06/24 05:14:48;;;;;;;28.73;25.70;;;15.60;99.90;;;;;;5125003;27;20468;-71
2021/06/24 05:17:16;;;;;;;27.93;25.07;;;15.70;99.90;;;;;;5119868;27;20460;-72
2021/06/24 05:19:43;;;;;;;31.60;25.37;;;15.60;99.90;;;;;;5120761;27;20950;-71
2021/06/24 05:22:11;;;;;;;28.43;25.73;;;15.80;99.90;;;;;;5120653;27;20477;-71
2021/06/24 05:24:40;;;;;;;27.87;24.17;;;15.90;99.90;;;;;;5117978;27;20472;-71
2021/06/24 05:27:09;;;;;;;26.40;23.70;;;15.90;99.90;;;;;;5118750;27;20455;-73
2021/06/24 05:29:36;;;;;;;37.57;24.27;;;15.90;99.90;;;;;;5124239;27;20848;-72
2021/06/24 05:32:04;;;;;;;28.33;25.80;;;15.90;99.90;;;;;;5120610;27;20472;-71
2021/06/24 05:34:32;;;;;;;27.37;24.90;;;15.90;99.90;;;;;;5119409;27;20457;-71
2021/06/24 05:37:00;;;;;;;29.40;26.33;;;15.90;99.90;;;;;;5123267;27;20499;-74
2021/06/24 05:39:29;;;;;;;28.73;25.00;;;15.90;99.90;;;;;;5125833;27;20552;-71
2021/06/24 05:41:56;;;;;;;28.13;25.70;;;15.90;99.90;;;;;;5122114;27;20521;-71
2021/06/24 05:44:25;;;;;;;28.03;25.43;;;16.00;99.90;;;;;;5122227;27;20498;-71
2021/06/24 05:46:52;;;;;;;27.57;25.20;;;16.10;99.90;;;;;;5120289;27;20456;-71
2021/06/24 05:49:19;;;;;;;27.37;24.90;;;16.10;99.90;;;;;;5120534;27;20468;-73
2021/06/24 05:51:46;;;;;;;28.83;26.03;;;16.20;99.90;;;;;;5118177;27;20464;-72
2021/06/24 05:54:13;;;;;;;28.23;25.60;;;16.30;99.90;;;;;;5117700;27;20723;-71
2021/06/24 05:56:40;;;;;;;27.63;25.03;;;16.60;99.90;;;;;;5117969;27;20463;-72
2021/06/24 05:59:07;;;;;;;31.53;26.90;;;16.80;99.90;;;;;;5113342;27;20449;-74
2021/06/24 06:01:36;;;;;;;28.83;25.87;;;16.80;99.90;;;;;;5113290;27;20874;-74
2021/06/24 06:04:04;;;;;;;28.00;25.30;;;16.90;99.90;;;;;;5109180;27;20488;-71
2021/06/24 06:06:30;;;;;;;27.13;24.83;;;17.00;99.90;;;;;;5124100;27;20536;-71
2021/06/24 06:08:57;;;;;;;27.60;24.63;;;17.00;99.90;;;;;;5114816;27;20955;-71
2021/06/24 06:11:24;;;;;;;28.63;25.50;;;17.10;99.90;;;;;;5113167;27;20532;-72
2021/06/24 06:13:51;;;;;;;26.63;24.30;;;17.20;99.90;;;;;;5114568;27;20551;-71
2021/06/24 06:16:18;;;;;;;30.40;24.60;;;17.20;99.90;;;;;;5119084;27;20457;-71
2021/06/24 06:18:46;;;;;;;27.23;24.43;;;17.50;99.90;;;;;;5111236;27;21005;-74
2021/06/24 06:21:13;;;;;;;28.17;25.10;;;17.50;99.90;;;;;;5109973;27;21006;-71
2021/06/24 06:23:40;;;;;;;30.07;26.07;;;17.40;99.90;;;;;;5105529;27;20551;-72
2021/06/24 06:26:07;;;;;;;29.53;26.13;;;17.50;99.90;;;;;;5111062;27;20495;-71
2021/06/24 06:28:34;;;;;;;29.23;26.50;;;17.60;99.90;;;;;;5119074;27;20456;-69
2021/06/24 06:31:01;;;;;;;31.60;27.13;;;17.60;99.90;;;;;;5113822;27;20544;-71
2021/06/24 06:33:28;;;;;;;30.40;27.30;;;17.60;99.90;;;;;;5120917;27;20597;-72
2021/06/24 06:35:57;;;;;;;32.30;27.90;;;17.80;99.90;;;;;;5115671;27;20464;-71
2021/06/24 06:38:24;;;;;;;28.70;25.67;;;17.80;99.90;;;;;;5117452;27;21021;-71
2021/06/24 06:40:51;;;;;;;29.20;26.23;;;17.90;99.90;;;;;;5115910;27;20972;-73
2021/06/24 06:43:19;;;;;;;29.50;26.40;;;17.70;99.90;;;;;;5111599;27;20965;-71
2021/06/24 06:45:47;;;;;;;32.87;27.40;;;17.70;99.90;;;;;;5114563;27;20840;-71
2021/06/24 06:48:14;;;;;;;30.60;27.73;;;17.60;99.90;;;;;;5119674;27;20466;-71
2021/06/24 06:50:43;;;;;;;28.63;25.83;;;17.70;99.90;;;;;;5114951;27;20453;-69
2021/06/24 06:53:12;;;;;;;30.93;27.87;;;17.90;99.90;;;;;;5113218;27;20459;-71
2021/06/24 06:55:39;;;;;;;30.43;27.43;;;18.10;99.90;;;;;;5108887;27;20491;-71
2021/06/24 06:58:07;;;;;;;32.00;28.70;;;18.30;99.90;;;;;;5117013;27;20965;-71
2021/06/24 07:00:34;;;;;;;32.13;29.20;;;18.60;99.90;;;;;;5111289;27;20462;-71
2021/06/24 07:03:02;;;;;;;32.00;28.97;;;18.90;99.90;;;;;;5107966;27;20460;-71
2021/06/24 07:05:29;;;;;;;32.80;29.50;;;19.30;99.90;;;;;;5112754;27;20503;-71
2021/06/24 07:07:57;;;;;;;35.70;32.03;;;19.50;99.90;;;;;;5115356;27;20985;-71
2021/06/24 07:10:25;;;;;;;35.77;32.07;;;19.60;99.90;;;;;;5110682;27;20946;-72
2021/06/24 07:12:52;;;;;;;36.77;33.37;;;19.40;99.90;;;;;;5110680;27;20457;-73
2021/06/24 07:15:19;;;;;;;36.90;33.20;;;19.40;99.90;;;;;;5119790;27;20468;-71
2021/06/24 07:17:47;;;;;;;40.93;35.33;;;19.70;99.90;;;;;;5112971;28;20468;-73
2021/06/24 07:20:15;;;;;;;39.77;35.70;;;20.00;99.90;;;;;;5109317;28;20480;-72
2021/06/24 07:22:42;;;;;;;39.47;35.43;;;20.00;99.90;;;;;;5114533;28;20468;-72
2021/06/24 07:25:13;;;;;;;42.87;34.40;;;19.90;99.90;;;;;;5105808;28;20495;-72
2021/06/24 07:27:41;;;;;;;42.00;35.83;;;20.10;99.90;;;;;;5115234;28;20447;-72
2021/06/24 07:30:09;;;;;;;41.17;36.80;;;20.20;99.90;;;;;;5114920;28;20552;-71
2021/06/24 07:32:36;;;;;;;41.73;37.30;;;20.20;99.90;;;;;;5115080;28;20457;-71
2021/06/24 07:35:03;;;;;;;39.60;35.30;;;20.00;99.90;;;;;;5113187;28;20452;-75
2021/06/24 07:37:30;;;;;;;41.80;37.60;;;19.80;99.90;;;;;;5112855;27;21012;-75
2021/06/24 07:39:58;;;;;;;43.10;38.53;;;19.90;99.90;;;;;;5118324;27;20462;-73
2021/06/24 07:42:25;;;;;;;47.60;38.30;;;20.40;99.90;;;;;;5113968;27;20862;-72
2021/06/24 07:44:54;;;;;;;52.37;42.47;;;20.40;99.90;;;;;;5116891;27;20492;-72
2021/06/24 07:47:21;;;;;;;51.57;41.63;;;20.80;99.90;;;;;;5112924;27;20800;-72
2021/06/24 07:49:48;;;;;;;48.17;42.63;;;21.20;99.90;;;;;;5113339;27;21006;-73
2021/06/24 07:52:15;;;;;;;46.27;41.90;;;21.20;99.90;;;;;;5112466;27;20803;-72
2021/06/24 07:54:42;;;;;;;49.87;44.67;;;21.00;99.90;;;;;;5114432;27;21002;-75
2021/06/24 07:57:09;;;;;;;51.13;45.80;;;21.30;99.90;;;;;;5113552;27;20455;-72
2021/06/24 07:59:37;;;;;;;52.07;46.30;;;21.40;99.90;;;;;;5117992;27;20999;-72
2021/06/24 08:02:06;;;;;;;47.43;42.07;;;21.50;99.90;;;;;;5114329;27;20483;-73
2021/06/24 08:04:34;;;;;;;54.00;44.20;;;21.70;99.90;;;;;;5117527;27;20480;-76
2021/06/24 08:07:01;;;;;;;51.30;46.03;;;21.60;99.90;;;;;;5120951;27;20496;-72
2021/06/24 08:09:29;;;;;;;48.83;43.73;;;22.10;99.90;;;;;;5122719;27;20460;-72
2021/06/24 08:11:56;;;;;;;51.20;45.70;;;22.30;99.90;;;;;;5121555;27;20455;-72
2021/06/24 08:14:23;;;;;;;47.80;43.03;;;22.90;99.90;;;;;;5116600;27;20525;-70
2021/06/24 08:16:50;;;;;;;47.37;42.37;;;23.10;99.90;;;;;;5114126;27;20463;-72
2021/06/24 08:19:19;;;;;;;48.60;43.60;;;23.90;99.90;;;;;;5118254;27;20460;-75
2021/06/24 08:21:45;;;;;;;49.13;43.97;;;24.00;99.90;;;;;;5114693;27;20480;-75
2021/06/24 08:24:13;;;;;;;48.70;43.73;;;24.10;99.90;;;;;;5117486;27;20753;-74
2021/06/24 08:26:40;;;;;;;47.70;42.97;;;24.40;99.90;;;;;;5111740;27;20974;-74
2021/06/24 08:29:07;;;;;;;47.30;42.67;;;24.10;99.90;;;;;;5113738;27;20472;-73
2021/06/24 08:31:34;;;;;;;49.20;44.20;;;24.00;99.90;;;;;;5120796;27;21081;-72
2021/06/24 08:34:02;;;;;;;50.90;45.93;;;23.70;99.90;;;;;;5116584;27;20464;-75
2021/06/24 08:36:30;;;;;;;50.33;45.00;;;23.50;99.90;;;;;;5111090;27;20993;-72
2021/06/24 08:38:57;;;;;;;54.63;48.77;;;23.10;99.90;;;;;;5114468;27;20455;-75
2021/06/24 08:41:25;;;;;;;51.67;46.60;;;22.60;99.90;;;;;;5111660;27;20500;-77
2021/06/24 08:43:53;;;;;;;54.33;48.47;;;22.60;99.90;;;;;;5112736;27;20464;-73
2021/06/24 08:46:22;;;;;;;51.17;46.33;;;22.90;99.90;;;;;;5112805;27;20495;-75
2021/06/24 08:48:49;;;;;;;56.43;50.87;;;23.20;99.90;;;;;;5114200;27;20548;-73
2021/06/24 08:51:17;;;;;;;56.40;50.60;;;23.10;99.90;;;;;;5116104;27;20948;-73
2021/06/24 08:53:48;;;;;;;61.07;54.37;;;23.00;99.90;;;;;;5117034;27;20473;-77
2021/06/24 08:56:16;;;;;;;62.30;54.23;;;22.30;99.90;;;;;;5115643;27;20594;-72
2021/06/24 08:58:44;;;;;;;62.33;55.77;;;22.20;99.90;;;;;;5116435;27;20479;-75
2021/06/24 09:01:11;;;;;;;61.63;55.30;;;22.20;99.90;;;;;;5117908;27;20451;-75
2021/06/24 09:03:39;;;;;;;62.00;55.57;;;22.00;99.90;;;;;;5117158;27;20487;-73
2021/06/24 09:06:07;;;;;;;61.20;54.70;;;22.40;99.90;;;;;;5115735;27;20575;-72
2021/06/24 09:08:42;;;;;;;64.67;57.77;;;22.90;99.90;;;;;;5114850;27;20553;-74
2021/06/24 09:11:16;;;;;;;66.50;57.73;;;22.40;99.90;;;;;;5115167;27;20977;-75
2021/06/24 09:13:45;;;;;;;64.37;57.67;;;22.40;99.90;;;;;;5112422;27;20466;-72
2021/06/24 09:16:23;;;;;;;72.20;57.77;;;22.40;99.90;;;;;;5112755;27;20552;-74
2021/06/24 09:18:51;;;;;;;74.93;59.37;;;22.40;99.90;;;;;;5111696;27;20539;-77
2021/06/24 09:21:21;;;;;;;65.33;58.23;;;22.10;99.90;;;;;;5120043;27;20476;-73
2021/06/24 09:23:49;;;;;;;65.87;58.83;;;22.50;99.90;;;;;;5114937;27;20456;-73
2021/06/24 09:26:18;;;;;;;72.70;56.00;;;23.00;99.90;;;;;;5115204;27;20489;-73
2021/06/24 09:28:47;;;;;;;67.50;60.10;;;23.20;99.90;;;;;;5113528;27;21028;-73
2021/06/24 09:31:25;;;;;;;64.97;57.77;;;24.10;99.90;;;;;;5119458;27;20958;-73
2021/06/24 09:33:53;;;;;;;63.87;57.00;;;24.50;99.90;;;;;;5116020;27;20465;-76
2021/06/24 09:36:34;;;;;;;64.87;54.27;;;24.70;99.90;;;;;;5113661;27;20832;-73
2021/06/24 09:39:03;;;;;;;65.23;57.80;;;24.30;99.90;;;;;;5120257;27;20792;-73
2021/06/24 09:41:31;;;;;;;64.30;57.80;;;24.70;99.90;;;;;;5120570;27;20532;-78
2021/06/24 09:43:58;;;;;;;59.87;53.60;;;24.40;99.90;;;;;;5121088;27;20456;-73
2021/06/24 09:46:30;;;;;;;60.33;53.73;;;24.60;99.90;;;;;;5120354;27;20487;-75
2021/06/24 09:48:59;;;;;;;63.93;56.97;;;25.10;99.90;;;;;;5111340;27;20567;-75
2021/06/24 09:51:30;;;;;;;60.73;53.93;;;25.30;99.90;;;;;;5118817;27;20993;-76
2021/06/24 09:53:59;;;;;;;58.17;51.90;;;25.20;99.90;;;;;;5118011;27;20989;-73
2021/06/24 09:56:31;;;;;;;59.77;53.77;;;24.50;99.90;;;;;;5112729;27;20450;-73
2021/06/24 09:59:00;;;;;;;63.17;56.37;;;24.70;99.90;;;;;;5120712;27;20539;-73
2021/06/24 10:01:32;;;;;;;59.33;53.40;;;24.90;99.90;;;;;;5111744;27;20472;-77
2021/06/24 10:04:01;;;;;;;56.70;50.63;;;25.80;99.90;;;;;;5111862;27;20464;-79
2021/06/24 10:06:28;;;;;;;58.03;52.57;;;26.10;99.90;;;;;;5113669;27;20492;-74
2021/06/24 10:08:57;;;;;;;60.23;53.80;;;25.40;99.90;;;;;;5117449;27;20521;-74
2021/06/24 10:11:26;;;;;;;62.30;55.90;;;25.50;99.90;;;;;;5110770;27;20456;-75
2021/06/24 10:13:56;;;;;;;57.53;51.53;;;25.70;99.90;;;;;;5115444;27;20468;-74
2021/06/24 10:16:27;;;;;;;55.77;50.20;;;26.30;99.90;;;;;;5110158;27;20962;-74
2021/06/24 10:18:58;;;;;;;56.93;51.43;;;25.90;99.90;;;;;;5116254;27;20460;-74
2021/06/24 10:21:25;;;;;;;58.70;53.00;;;26.20;99.90;;;;;;5115773;27;20476;-79
2021/06/24 10:23:55;;;;;;;60.07;54.13;;;26.30;99.90;;;;;;5108950;27;20461;-73
2021/06/24 10:26:25;;;;;;;59.70;53.80;;;26.60;99.90;;;;;;5119299;27;20491;-74
2021/06/24 10:29:14;;;;;;;56.67;50.63;;;26.40;99.90;;;;;;5119423;27;20456;-74
2021/06/24 10:31:44;;;;;;;58.17;52.43;;;26.40;99.90;;;;;;5121667;27;20452;-74
2021/06/24 10:34:12;;;;;;;55.30;49.80;;;25.70;99.90;;;;;;5115280;27;21148;-74
2021/06/24 10:36:39;;;;;;;56.10;50.50;;;26.30;99.90;;;;;;5118542;27;20463;-75
2021/06/24 10:39:07;;;;;;;55.77;50.50;;;26.30;99.90;;;;;;5115970;27;20457;-73
2021/06/24 10:42:09;;;;;;;55.13;49.63;;;25.30;99.90;;;;;;5112192;27;20890;-78
2021/06/24 10:44:51;;;;;;;55.80;50.60;;;24.70;99.90;;;;;;5107546;27;20469;-76
2021/06/24 10:47:31;;;;;;;54.17;48.87;;;24.60;99.90;;;;;;5110395;27;20558;-73
2021/06/24 10:50:31;;;;;;;56.37;51.00;;;24.30;99.90;;;;;;5110632;27;20988;-76
2021/06/24 10:53:20;;;;;;;54.43;48.93;;;23.90;99.90;;;;;;5113849;27;20472;-76
2021/06/24 10:55:50;;;;;;;54.13;49.07;;;25.00;99.90;;;;;;5112403;27;20580;-74
2021/06/24 10:58:35;;;;;;;51.10;46.60;;;26.10;99.90;;;;;;5123044;27;20476;-74
2021/06/24 11:01:02;;;;;;;48.63;44.20;;;27.00;99.90;;;;;;5116023;27;20954;-74
2021/06/24 11:03:40;;;;;;;48.90;44.60;;;27.10;99.90;;;;;;5111970;27;20466;-77
2021/06/24 11:06:13;;;;;;;49.43;44.80;;;27.30;99.90;;;;;;5113040;27;20527;-74
2021/06/24 11:08:41;;;;;;;49.53;45.17;;;27.50;99.90;;;;;;5108394;27;20551;-78
2021/06/24 11:11:12;;;;;;;50.43;45.50;;;28.50;99.90;;;;;;5110277;27;20468;-80
2021/06/24 11:13:47;;;;;;;48.50;44.43;;;28.50;99.90;;;;;;5112805;27;20548;-80
2021/06/24 11:16:33;;;;;;;52.47;47.43;;;28.00;99.90;;;;;;5119382;27;20535;-75
2021/06/24 11:19:06;;;;;;;52.80;48.20;;;27.30;99.90;;;;;;5116666;28;20848;-75
2021/06/24 11:22:03;;;;;;;50.37;45.90;;;27.30;99.90;;;;;;5116708;28;20482;-74
2021/06/24 11:24:31;;;;;;;52.63;47.83;;;27.10;99.90;;;;;;5111831;28;20457;-74
2021/06/24 11:27:02;;;;;;;54.93;49.37;;;26.50;99.90;;;;;;5117063;28;20993;-75
2021/06/24 11:29:46;;;;;;;53.40;48.17;;;25.90;99.90;;;;;;5110795;28;20571;-74
2021/06/24 11:32:16;;;;;;;54.73;49.10;;;25.30;99.90;;;;;;5108399;28;20452;-79
2021/06/24 11:34:51;;;;;;;55.57;49.67;;;25.10;99.90;;;;;;5105183;28;20573;-79
2021/06/24 11:37:22;;;;;;;57.83;51.83;;;24.70;99.90;;;;;;5114340;28;20462;-77
2021/06/24 11:39:51;;;;;;;54.27;49.10;;;24.00;99.90;;;;;;5109928;27;20453;-75
2021/06/24 11:42:23;;;;;;;53.30;48.03;;;24.20;99.90;;;;;;5114509;28;20464;-75
2021/06/24 11:44:52;;;;;;;55.27;45.20;;;25.00;99.90;;;;;;5110895;28;20959;-77
2021/06/24 11:47:21;;;;;;;47.83;43.07;;;26.50;99.90;;;;;;5115651;28;20487;-77
2021/06/24 12:04:10;;;;;;;42.20;38.57;;;27.60;99.90;;;;;;5119188;28;21105;-73
2021/06/24 12:06:48;;;;;;;43.10;39.40;;;28.50;99.90;;;;;;5120628;28;20569;-76
2021/06/24 12:09:20;;;;;;;43.43;39.30;;;29.00;99.90;;;;;;5111977;28;20475;-73
2021/06/24 12:11:48;;;;;;;44.97;40.90;;;29.80;99.90;;;;;;5110686;28;20453;-74
2021/06/24 12:14:18;;;;;;;42.07;38.67;;;29.00;99.90;;;;;;5107994;28;20457;-75
2021/06/24 12:17:22;;;;;;;46.90;42.70;;;28.30;99.90;;;;;;5113403;28;20457;-74
2021/06/24 12:20:15;;;;;;;43.53;39.73;;;27.90;99.90;;;;;;5113967;28;20467;-76
2021/06/24 12:22:49;;;;;;;42.47;38.43;;;28.10;99.90;;;;;;5112647;27;20456;-74
2021/06/24 12:25:20;;;;;;;42.33;38.83;;;27.80;99.90;;;;;;5120932;27;20455;-74
2021/06/24 12:27:49;;;;;;;42.43;38.57;;;28.10;99.90;;;;;;5120929;27;20580;-75
2021/06/24 12:30:21;;;;;;;42.83;39.33;;;28.20;99.90;;;;;;5121408;27;20470;-75
2021/06/24 12:32:53;;;;;;;43.40;39.80;;;27.60;99.90;;;;;;5115111;27;20559;-77
2021/06/24 12:35:26;;;;;;;41.93;37.87;;;26.90;99.90;;;;;;5114351;27;20457;-74
2021/06/24 12:37:54;;;;;;;41.90;38.60;;;26.50;99.90;;;;;;5115139;27;20518;-74
2021/06/24 12:40:23;;;;;;;43.53;39.53;;;26.30;99.90;;;;;;5117320;27;21029;-75
2021/06/24 12:42:53;;;;;;;41.60;37.97;;;26.40;99.90;;;;;;5111325;27;20548;-75
2021/06/24 12:45:23;;;;;;;40.17;36.47;;;25.90;99.90;;;;;;5119942;27;20496;-75
2021/06/24 12:47:51;;;;;;;38.57;35.27;;;25.50;99.90;;;;;;5118428;27;20986;-74
2021/06/24 12:50:27;;;;;;;42.23;37.90;;;25.60;99.90;;;;;;5118671;27;20460;-75
2021/06/24 12:52:56;;;;;;;41.23;36.90;;;25.70;99.90;;;;;;5117269;27;20911;-74